createdAt,value
2022-10-18T00:00:59.588Z,51.96
2022-10-18T00:03:32.321Z,52.06
2022-10-18T00:06:04.270Z,52.14
2022-10-18T00:08:37.962Z,52.24
2022-10-18T00:11:10.076Z,52.40
2022-10-18T00:13:41.813Z,52.52
2022-10-18T00:16:16.594Z,52.64
2022-10-18T00:18:49.975Z,52.65
2022-10-18T00:21:23.470Z,52.72
2022-10-18T00:23:55.988Z,52.82
2022-10-18T00:26:29.692Z,52.91
2022-10-18T00:29:13.507Z,52.99
2022-10-18T00:31:46.324Z,52.99
2022-10-18T00:34:18.000Z,53.07
2022-10-18T00:36:50.667Z,53.15
2022-10-18T00:39:23.909Z,53.20
2022-10-18T00:41:57.936Z,53.31
2022-10-18T00:44:32.772Z,53.39
2022-10-18T00:47:10.006Z,53.38
2022-10-18T00:50:03.813Z,53.47
2022-10-18T00:52:38.930Z,53.51
2022-10-18T00:55:11.819Z,53.51
2022-10-18T00:57:48.086Z,53.52
2022-10-18T01:00:24.359Z,53.51
2022-10-18T01:02:59.467Z,53.50
2022-10-18T01:05:32.327Z,53.53
2022-10-18T01:08:10.094Z,53.54
2022-10-18T01:11:09.152Z,53.54
2022-10-18T01:14:17.413Z,53.52
2022-10-18T01:17:16.458Z,53.44
2022-10-18T01:20:14.877Z,53.45
2022-10-18T01:23:06.403Z,53.43
2022-10-18T01:25:44.078Z,53.43
2022-10-18T01:28:37.150Z,53.42
2022-10-18T01:31:12.232Z,53.46
2022-10-18T01:33:59.740Z,53.48
2022-10-18T01:36:40.090Z,53.43
2022-10-18T01:39:19.824Z,53.51
2022-10-18T01:41:51.624Z,53.47
2022-10-18T01:44:25.659Z,53.43
2022-10-18T01:46:58.092Z,53.38
2022-10-18T01:49:30.447Z,53.22
2022-10-18T01:52:02.346Z,53.31
2022-10-18T01:54:36.276Z,53.22
2022-10-18T01:57:25.929Z,53.18
2022-10-18T02:00:06.666Z,53.14
2022-10-18T02:03:07.198Z,53.19
2022-10-18T02:05:49.330Z,53.22
2022-10-18T02:08:45.653Z,53.12
2022-10-18T02:11:17.699Z,53.15
2022-10-18T02:13:57.962Z,53.03
2022-10-18T02:16:42.427Z,53.02
2022-10-18T02:21:55.505Z,52.93
2022-10-18T02:24:31.098Z,52.94
2022-10-18T02:27:05.690Z,52.83
2022-10-18T02:29:38.499Z,52.90
2022-10-18T02:32:14.454Z,52.89
2022-10-18T02:34:50.644Z,52.79
2022-10-18T02:39:58.721Z,52.77
2022-10-18T02:42:38.826Z,52.71
2022-10-18T02:45:10.805Z,52.65
2022-10-18T02:47:45.265Z,52.65
2022-10-18T02:50:17.742Z,52.67
2022-10-18T02:52:49.814Z,52.76
2022-10-18T02:55:21.890Z,52.76
2022-10-18T02:57:54.144Z,52.70
2022-10-18T03:00:26.560Z,52.69
2022-10-18T03:02:58.415Z,52.66
2022-10-18T03:05:34.442Z,52.59
2022-10-18T03:08:07.386Z,52.50
2022-10-18T03:10:39.746Z,52.45
2022-10-18T03:13:12.471Z,52.37
2022-10-18T03:15:45.714Z,52.33
2022-10-18T03:18:18.280Z,52.33
2022-10-18T03:20:50.978Z,52.34
2022-10-18T03:23:23.492Z,52.24
2022-10-18T03:25:56.361Z,52.25
2022-10-18T03:28:28.322Z,52.25
2022-10-18T03:31:04.984Z,52.13
2022-10-18T03:33:37.640Z,52.11
2022-10-18T03:36:10.126Z,52.06
2022-10-18T03:38:42.353Z,51.90
2022-10-18T03:41:18.161Z,51.84
2022-10-18T03:43:50.662Z,51.83
2022-10-18T03:46:25.254Z,51.79
2022-10-18T03:48:57.290Z,51.78
2022-10-18T03:51:29.237Z,51.80
2022-10-18T03:54:03.209Z,51.89
2022-10-18T03:56:36.697Z,51.81
2022-10-18T03:59:08.438Z,51.94
2022-10-18T04:01:42.008Z,51.99
2022-10-18T04:04:13.865Z,52.07
2022-10-18T04:06:47.335Z,52.34
2022-10-18T04:09:19.336Z,52.22
2022-10-18T04:11:52.449Z,52.19
2022-10-18T04:14:24.122Z,52.08
2022-10-18T04:16:56.959Z,51.92
2022-10-18T04:19:28.625Z,51.75
2022-10-18T04:22:00.983Z,51.75
2022-10-18T04:24:32.914Z,51.60
2022-10-18T04:27:06.018Z,51.52
2022-10-18T04:29:38.393Z,51.44
2022-10-18T04:32:10.156Z,51.43
2022-10-18T04:37:15.625Z,51.37
2022-10-18T04:39:53.645Z,51.23
2022-10-18T04:42:25.169Z,51.25
2022-10-18T04:44:57.659Z,51.17
2022-10-18T04:47:31.103Z,50.95
2022-10-18T04:50:04.710Z,50.67
2022-10-18T04:52:37.106Z,50.05
2022-10-18T04:55:09.462Z,49.50
2022-10-18T04:57:42.442Z,48.68
2022-10-18T05:00:39.949Z,47.77
2022-10-18T05:03:11.374Z,47.41
2022-10-18T05:06:00.682Z,46.91
2022-10-18T05:08:17.301Z,46.35
2022-10-18T05:10:49.045Z,45.86
2022-10-18T05:13:22.087Z,45.24
2022-10-18T05:15:55.090Z,44.63
2022-10-18T05:18:28.977Z,44.31
2022-10-18T05:21:00.735Z,43.55
2022-10-18T05:23:33.271Z,43.45
2022-10-18T05:26:08.161Z,42.85
2022-10-18T05:28:43.170Z,42.52
2022-10-18T05:31:17.150Z,42.40
2022-10-18T05:33:50.123Z,42.06
2022-10-18T05:36:23.158Z,41.76
2022-10-18T05:39:00.973Z,41.17
2022-10-18T05:41:31.675Z,40.81
2022-10-18T05:44:07.835Z,40.33
2022-10-18T05:46:41.161Z,40.05
2022-10-18T05:49:13.789Z,39.68
2022-10-18T05:51:48.186Z,39.27
2022-10-18T05:54:22.633Z,38.55
2022-10-18T05:56:58.250Z,38.25
2022-10-18T05:59:32.808Z,37.80
2022-10-18T06:02:04.530Z,36.63
2022-10-18T06:04:39.719Z,36.38
2022-10-18T06:07:14.756Z,36.04
2022-10-18T06:09:47.434Z,35.39
2022-10-18T06:12:19.223Z,35.00
2022-10-18T06:14:51.757Z,34.19
2022-10-18T06:17:25.922Z,33.59
2022-10-18T06:19:58.372Z,33.34
2022-10-18T06:22:30.537Z,33.24
2022-10-18T06:25:02.746Z,33.12
2022-10-18T06:27:38.090Z,32.57
2022-10-18T06:30:12.377Z,32.51
2022-10-18T06:32:44.721Z,32.49
2022-10-18T06:35:18.000Z,32.30
2022-10-18T06:37:49.947Z,32.22
2022-10-18T06:40:23.450Z,31.94
2022-10-18T06:43:05.780Z,31.46
2022-10-18T06:45:32.018Z,31.18
2022-10-18T06:48:06.395Z,30.89
2022-10-18T06:50:38.662Z,30.43
2022-10-18T06:53:10.635Z,30.44
2022-10-18T06:55:42.518Z,30.31
2022-10-18T06:58:14.838Z,30.19
2022-10-18T07:00:47.712Z,29.86
2022-10-18T07:03:21.846Z,29.68
2022-10-18T07:05:54.516Z,29.02
2022-10-18T07:08:26.354Z,28.75
2022-10-18T07:11:00.392Z,28.56
2022-10-18T07:13:33.447Z,28.35
2022-10-18T07:16:14.282Z,27.82
2022-10-18T07:18:49.770Z,27.76
2022-10-18T07:21:23.701Z,28.00
2022-10-18T07:23:55.960Z,27.56
2022-10-18T07:26:30.933Z,27.24
2022-10-18T07:29:24.842Z,27.12
2022-10-18T07:31:57.433Z,26.99
2022-10-18T07:34:29.321Z,26.73
2022-10-18T07:37:03.107Z,26.23
2022-10-18T07:39:35.262Z,26.00
2022-10-18T07:42:07.492Z,25.73
2022-10-18T07:44:40.060Z,25.41
2022-10-18T07:47:12.520Z,25.62
2022-10-18T07:49:45.897Z,25.21
2022-10-18T07:52:18.221Z,25.07
2022-10-18T07:57:24.543Z,24.83
2022-10-18T07:59:57.265Z,24.71
2022-10-18T08:02:28.963Z,24.75
2022-10-18T08:05:02.649Z,24.57
2022-10-18T08:07:35.119Z,24.78
2022-10-18T08:10:08.937Z,24.60
2022-10-18T08:12:42.082Z,24.33
2022-10-18T08:15:14.774Z,24.92
2022-10-18T08:17:46.888Z,25.14
2022-10-18T08:20:30.285Z,25.29
2022-10-18T08:22:59.090Z,24.97
2022-10-18T08:25:27.855Z,24.74
2022-10-18T08:28:01.685Z,24.68
2022-10-18T08:30:33.540Z,24.57
2022-10-18T08:33:05.350Z,24.51
2022-10-18T08:35:37.031Z,24.58
2022-10-18T08:38:16.609Z,24.34
2022-10-18T08:40:46.238Z,24.37
2022-10-18T08:43:43.827Z,24.58
2022-10-18T08:46:15.744Z,24.75
2022-10-18T08:48:49.692Z,25.14
2022-10-18T08:51:48.579Z,24.92
2022-10-18T08:54:35.838Z,25.50
2022-10-18T08:57:10.639Z,24.96
2022-10-18T09:00:04.088Z,25.05
2022-10-18T09:02:57.986Z,25.04
2022-10-18T09:05:39.742Z,24.81
2022-10-18T09:08:42.279Z,24.68
2022-10-18T09:11:41.889Z,24.71
2022-10-18T09:14:29.646Z,24.31
2022-10-18T09:17:21.687Z,24.49
2022-10-18T09:20:03.943Z,24.28
2022-10-18T09:22:51.735Z,24.65
2022-10-18T09:25:27.328Z,24.94
2022-10-18T09:28:11.004Z,25.20
2022-10-18T09:31:12.337Z,25.37
2022-10-18T09:34:22.746Z,25.37
2022-10-18T09:36:55.835Z,25.11
2022-10-18T09:39:48.754Z,25.18
2022-10-18T09:42:25.795Z,25.48
2022-10-18T09:45:03.658Z,25.16
2022-10-18T09:47:46.512Z,25.30
2022-10-18T09:50:24.458Z,25.26
2022-10-18T09:53:20.789Z,25.00
2022-10-18T09:56:04.677Z,25.18
2022-10-18T09:58:44.591Z,25.47
2022-10-18T10:01:26.833Z,26.03
2022-10-18T10:03:58.693Z,25.73
2022-10-18T10:06:32.288Z,25.23
2022-10-18T10:09:18.364Z,25.26
2022-10-18T10:11:51.355Z,24.91
2022-10-18T10:14:26.555Z,24.73
2022-10-18T10:17:08.217Z,24.59
2022-10-18T10:19:43.255Z,24.91
2022-10-18T10:22:16.135Z,25.23
2022-10-18T10:24:53.112Z,24.88
2022-10-18T10:27:43.771Z,25.31
2022-10-18T10:30:37.227Z,25.64
2022-10-18T10:33:12.229Z,25.44
2022-10-18T10:35:59.387Z,25.07
2022-10-18T10:38:26.008Z,25.80
2022-10-18T10:40:58.405Z,25.88
2022-10-18T10:43:39.779Z,26.29
2022-10-18T10:46:10.439Z,25.24
2022-10-18T10:49:21.662Z,25.52
2022-10-18T10:51:34.246Z,24.76
2022-10-18T10:54:16.100Z,24.81
2022-10-18T10:57:05.904Z,24.54
2022-10-18T10:59:46.176Z,24.74
2022-10-18T11:02:30.677Z,25.59
2022-10-18T11:05:31.266Z,25.69
2022-10-18T11:08:04.280Z,25.15
2022-10-18T11:11:23.208Z,24.61
2022-10-18T11:14:24.740Z,25.31
2022-10-18T11:16:56.452Z,25.20
2022-10-18T11:19:52.857Z,25.63
2022-10-18T11:22:26.582Z,26.02
2022-10-18T11:24:59.918Z,25.49
2022-10-18T11:27:38.919Z,25.40
2022-10-18T11:30:29.303Z,25.43
2022-10-18T11:33:10.313Z,26.54
2022-10-18T11:35:49.008Z,25.32
2022-10-18T11:38:42.434Z,24.74
2022-10-18T11:41:36.772Z,26.28
2022-10-18T11:44:21.376Z,27.18
2022-10-18T11:47:02.688Z,27.67
2022-10-18T11:49:53.508Z,28.77
2022-10-18T11:52:47.186Z,29.22
2022-10-18T11:55:48.425Z,29.65
2022-10-18T11:58:23.399Z,30.98
2022-10-18T12:01:07.939Z,32.08
2022-10-18T12:03:48.317Z,31.42
2022-10-18T12:06:23.894Z,32.67
2022-10-18T12:09:07.676Z,32.95
2022-10-18T12:11:47.124Z,33.29
2022-10-18T12:14:28.180Z,33.50
2022-10-18T12:17:35.765Z,34.20
2022-10-18T12:19:38.226Z,33.68
2022-10-18T12:22:22.247Z,33.95
2022-10-18T12:24:54.058Z,34.07
2022-10-18T12:27:51.980Z,34.78
2022-10-18T12:30:33.583Z,35.23
2022-10-18T12:33:28.309Z,34.56
2022-10-18T12:36:07.789Z,34.80
2022-10-18T12:38:41.736Z,34.77
2022-10-18T12:41:19.616Z,35.04
2022-10-18T12:44:07.206Z,35.68
2022-10-18T12:46:48.383Z,35.64
2022-10-18T12:49:31.584Z,35.75
2022-10-18T12:52:24.221Z,35.64
2022-10-18T12:55:16.722Z,35.84
2022-10-18T12:57:57.666Z,35.51
2022-10-18T13:00:54.104Z,36.14
2022-10-18T13:03:31.946Z,35.60
2022-10-18T13:06:06.795Z,35.80
2022-10-18T13:08:42.428Z,36.33
2022-10-18T13:11:21.756Z,36.05
2022-10-18T13:14:15.024Z,36.28
2022-10-18T13:16:50.510Z,36.31
2022-10-18T13:19:41.435Z,36.40
2022-10-18T13:22:42.096Z,36.40
2022-10-18T13:25:35.058Z,36.95
2022-10-18T13:28:38.672Z,36.81
2022-10-18T13:31:20.471Z,36.07
2022-10-18T13:33:52.299Z,35.97
2022-10-18T13:36:29.397Z,36.26
2022-10-18T13:39:02.800Z,36.19
2022-10-18T13:41:53.639Z,36.33
2022-10-18T13:44:41.796Z,36.47
2022-10-18T13:47:35.274Z,36.87
2022-10-18T13:50:13.931Z,36.58
2022-10-18T13:53:10.720Z,36.58
2022-10-18T13:55:59.041Z,36.23
2022-10-18T13:59:05.649Z,35.76
2022-10-18T14:01:52.956Z,35.26
2022-10-18T14:04:40.661Z,35.48
2022-10-18T14:07:13.241Z,35.46
2022-10-18T14:09:52.257Z,35.75
2022-10-18T14:12:29.222Z,35.89
2022-10-18T14:15:12.911Z,35.45
2022-10-18T14:17:51.205Z,35.62
2022-10-18T14:20:29.381Z,35.55
2022-10-18T14:23:22.403Z,35.20
2022-10-18T14:26:08.618Z,34.92
2022-10-18T14:28:59.157Z,35.03
2022-10-18T14:31:37.051Z,35.21
2022-10-18T14:34:12.007Z,35.12
2022-10-18T14:36:43.958Z,35.08
2022-10-18T14:39:23.561Z,34.74
2022-10-18T14:41:56.372Z,35.08
2022-10-18T14:44:29.584Z,34.83
2022-10-18T14:47:27.675Z,34.75
2022-10-18T14:50:00.822Z,34.96
2022-10-18T14:52:35.623Z,34.58
2022-10-18T14:55:09.838Z,34.84
2022-10-18T14:57:42.338Z,34.69
2022-10-18T15:00:19.536Z,34.50
2022-10-18T15:02:51.386Z,35.30
2022-10-18T15:05:24.552Z,34.83
2022-10-18T15:07:58.514Z,34.45
2022-10-18T15:10:32.109Z,34.79
2022-10-18T15:13:09.905Z,34.45
2022-10-18T15:15:38.214Z,34.36
2022-10-18T15:18:24.349Z,34.56
2022-10-18T15:21:20.688Z,34.89
2022-10-18T15:23:53.909Z,34.92
2022-10-18T15:26:29.174Z,34.79
2022-10-18T15:29:06.031Z,35.08
2022-10-18T15:31:38.115Z,35.46
2022-10-18T15:34:19.947Z,35.56
2022-10-18T15:36:52.746Z,35.77
2022-10-18T15:39:26.613Z,35.65
2022-10-18T15:41:59.326Z,36.04
2022-10-18T15:44:35.907Z,35.37
2022-10-18T15:47:18.711Z,35.63
2022-10-18T15:49:55.459Z,35.54
2022-10-18T15:52:35.219Z,35.56
2022-10-18T15:55:25.583Z,35.47
2022-10-18T15:58:08.521Z,35.51
2022-10-18T16:00:40.423Z,35.64
2022-10-18T16:03:12.211Z,35.45
2022-10-18T16:05:44.035Z,35.34
2022-10-18T16:08:28.260Z,36.02
2022-10-18T16:11:01.365Z,35.84
2022-10-18T16:13:34.186Z,36.04
2022-10-18T16:16:06.066Z,35.35
2022-10-18T16:18:39.090Z,35.43
2022-10-18T16:21:30.325Z,35.42
2022-10-18T16:24:02.817Z,35.61
2022-10-18T16:26:35.050Z,35.91
2022-10-18T16:29:07.496Z,36.29
2022-10-18T16:31:42.352Z,35.89
2022-10-18T16:34:15.047Z,35.83
2022-10-18T16:36:46.820Z,35.88
2022-10-18T16:39:22.049Z,35.98
2022-10-18T16:41:55.341Z,36.22
2022-10-18T16:44:27.051Z,36.49
2022-10-18T16:46:59.351Z,35.96
2022-10-18T16:49:31.461Z,36.25
2022-10-18T16:52:03.381Z,36.36
2022-10-18T16:54:35.854Z,35.54
2022-10-18T16:57:11.943Z,35.92
2022-10-18T16:59:45.474Z,35.93
2022-10-18T17:02:18.678Z,35.63
2022-10-18T17:04:54.198Z,35.36
2022-10-18T17:07:31.873Z,35.35
2022-10-18T17:10:03.730Z,35.11
2022-10-18T17:12:37.330Z,35.64
2022-10-18T17:15:12.283Z,35.16
2022-10-18T17:17:54.191Z,35.75
2022-10-18T17:20:28.540Z,35.65
2022-10-18T17:23:01.384Z,35.43
2022-10-18T17:25:42.198Z,35.52
2022-10-18T17:28:14.920Z,35.31
2022-10-18T17:30:48.931Z,35.39
2022-10-18T17:33:33.988Z,36.22
2022-10-18T17:36:19.804Z,36.08
2022-10-18T17:38:55.602Z,35.75
2022-10-18T17:41:36.368Z,35.36
2022-10-18T17:44:14.873Z,34.96
2022-10-18T17:46:51.764Z,35.44
2022-10-18T17:49:32.613Z,35.00
2022-10-18T17:55:13.486Z,35.33
2022-10-18T17:57:54.823Z,35.64
2022-10-18T18:00:28.880Z,35.53
2022-10-18T18:03:08.095Z,35.83
2022-10-18T18:05:45.305Z,35.94
2022-10-18T18:08:17.381Z,35.73
2022-10-18T18:10:57.043Z,35.47
2022-10-18T18:13:34.971Z,36.08
2022-10-18T18:16:14.754Z,36.25
2022-10-18T18:18:50.573Z,36.37
2022-10-18T18:21:24.574Z,36.49
2022-10-18T18:24:01.753Z,36.65
2022-10-18T18:26:37.089Z,36.53
2022-10-18T18:29:10.250Z,36.20
2022-10-18T18:31:49.290Z,36.63
2022-10-18T18:34:24.506Z,37.22
2022-10-18T18:36:59.336Z,37.03
2022-10-18T18:39:35.986Z,36.77
2022-10-18T18:42:10.443Z,36.76
2022-10-18T18:44:45.774Z,36.76
2022-10-18T18:47:23.213Z,37.09
2022-10-18T18:50:00.205Z,37.49
2022-10-18T18:52:35.835Z,37.28
2022-10-18T18:55:09.279Z,37.21
2022-10-18T18:57:42.215Z,36.89
2022-10-18T19:00:21.127Z,36.88
2022-10-18T19:02:55.501Z,37.19
2022-10-18T19:05:28.790Z,37.41
2022-10-18T19:08:03.309Z,37.47
2022-10-18T19:10:39.090Z,37.59
2022-10-18T19:13:13.148Z,37.92
2022-10-18T19:15:47.129Z,38.08
2022-10-18T19:18:24.118Z,37.50
2022-10-18T19:20:58.141Z,38.20
2022-10-18T19:23:31.068Z,37.74
2022-10-18T19:26:13.264Z,37.95
2022-10-18T19:28:47.890Z,37.68
2022-10-18T19:31:21.037Z,37.72
2022-10-18T19:33:59.381Z,38.30
2022-10-18T19:36:32.605Z,38.39
2022-10-18T19:39:04.601Z,38.35
2022-10-18T19:41:37.458Z,38.53
2022-10-18T19:44:10.482Z,38.48
2022-10-18T19:46:42.341Z,38.10
2022-10-18T19:49:16.443Z,38.28
2022-10-18T19:51:48.278Z,38.35
2022-10-18T19:54:21.531Z,38.54
2022-10-18T19:56:54.302Z,38.70
2022-10-18T19:59:27.747Z,38.61
2022-10-18T20:02:02.314Z,38.80
2022-10-18T20:04:35.258Z,39.03
2022-10-18T20:07:07.188Z,38.83
2022-10-18T20:09:39.963Z,38.72
2022-10-18T20:12:13.494Z,39.04
2022-10-18T20:14:45.153Z,39.56
2022-10-18T20:17:19.917Z,39.06
2022-10-18T20:19:51.638Z,39.17
2022-10-18T20:22:23.484Z,39.16
2022-10-18T20:24:57.470Z,39.40
2022-10-18T20:27:32.246Z,39.55
2022-10-18T20:30:07.657Z,39.86
2022-10-18T20:32:38.334Z,39.93
2022-10-18T20:35:31.130Z,39.99
2022-10-18T20:38:03.060Z,40.01
2022-10-18T20:40:35.594Z,40.60
2022-10-18T20:43:07.664Z,40.66
2022-10-18T20:45:39.568Z,40.35
2022-10-18T20:48:11.510Z,40.36
2022-10-18T20:50:44.257Z,40.81
2022-10-18T20:53:16.807Z,40.56
2022-10-18T20:55:49.500Z,40.49
2022-10-18T20:58:21.260Z,40.61
2022-10-18T21:00:54.427Z,40.59
2022-10-18T21:03:26.145Z,40.75
2022-10-18T21:05:58.050Z,40.82
2022-10-18T21:08:31.666Z,41.17
2022-10-18T21:11:04.832Z,41.06
2022-10-18T21:13:36.749Z,41.21
2022-10-18T21:16:09.747Z,41.54
2022-10-18T21:18:41.676Z,41.40
2022-10-18T21:21:16.496Z,41.51
2022-10-18T21:23:48.870Z,41.54
2022-10-18T21:26:23.612Z,41.76
2022-10-18T21:28:59.114Z,41.77
2022-10-18T21:31:32.766Z,41.94
2022-10-18T21:34:06.548Z,41.90
2022-10-18T21:36:39.539Z,42.25
2022-10-18T21:39:16.298Z,42.20
2022-10-18T21:41:49.028Z,42.31
2022-10-18T21:44:20.906Z,42.21
2022-10-18T21:46:52.877Z,42.29
2022-10-18T21:49:27.084Z,42.59
2022-10-18T21:51:58.793Z,42.70
2022-10-18T21:54:30.950Z,43.14
2022-10-18T21:57:02.614Z,43.23
2022-10-18T21:59:34.552Z,43.15
2022-10-18T22:02:06.431Z,43.50
2022-10-18T22:04:40.961Z,43.08
2022-10-18T22:07:14.193Z,43.21
2022-10-18T22:09:46.795Z,43.55
2022-10-18T22:12:19.200Z,43.54
2022-10-18T22:14:51.009Z,43.74
2022-10-18T22:17:23.672Z,43.72
2022-10-18T22:19:58.012Z,43.86
2022-10-18T22:22:30.279Z,44.07
2022-10-18T22:25:02.965Z,44.33
2022-10-18T22:27:37.197Z,44.28
2022-10-18T22:30:10.122Z,44.29
2022-10-18T22:32:42.809Z,44.36
2022-10-18T22:35:15.162Z,44.41
2022-10-18T22:37:47.931Z,44.54
2022-10-18T22:40:20.990Z,44.58
2022-10-18T22:42:53.675Z,44.66
2022-10-18T22:45:25.407Z,44.74
2022-10-18T22:47:58.596Z,44.84
2022-10-18T22:50:30.378Z,44.92
2022-10-18T22:53:03.339Z,45.15
2022-10-18T22:55:35.618Z,45.15
2022-10-18T22:58:07.988Z,45.22
2022-10-18T23:00:40.099Z,45.33
2022-10-18T23:03:11.858Z,45.57
2022-10-18T23:05:44.788Z,45.52
2022-10-18T23:08:16.490Z,45.56
2022-10-18T23:10:48.141Z,45.66
2022-10-18T23:13:20.863Z,45.72
2022-10-18T23:15:53.374Z,45.57
2022-10-18T23:18:25.758Z,45.61
2022-10-18T23:21:07.967Z,45.67
2022-10-18T23:23:40.752Z,45.77
2022-10-18T23:26:15.189Z,45.81
2022-10-18T23:28:48.880Z,45.76
2022-10-18T23:31:26.850Z,45.84
2022-10-18T23:36:33.659Z,45.86
2022-10-18T23:39:06.713Z,45.95
2022-10-18T23:41:39.349Z,45.81
2022-10-18T23:44:11.570Z,45.84
2022-10-18T23:46:43.848Z,45.89
2022-10-18T23:49:15.996Z,45.84
2022-10-18T23:51:48.323Z,45.84
2022-10-18T23:54:20.891Z,46.06
2022-10-18T23:56:56.696Z,46.08
2022-10-18T23:59:28.558Z,46.09
